sensor_id;sensor_type;location;lat;lon;timestamp;pressure;altitude;pressure_sealevel;temperature;humidity
11542;BME280;5827;49.482;7.716;2023-04-27T00:01:22;98942.50;;;5.23;100.00
11542;BME280;5827;49.482;7.716;2023-04-27T00:03:24;98946.38;;;5.21;98.26
11542;BME280;5827;49.482;7.716;2023-04-27T00:05:25;98948.63;;;5.24;99.31
11542;BME280;5827;49.482;7.716;2023-04-27T00:07:27;98946.78;;;5.31;98.47
11542;BME280;5827;49.482;7.716;2023-04-27T00:09:30;98946.16;;;5.16;98.89
11542;BME280;5827;49.482;7.716;2023-04-27T00:11:31;98945.53;;;4.94;100.00
11542;BME280;5827;49.482;7.716;2023-04-27T00:13:33;98936.34;;;4.96;100.00
11542;BME280;5827;49.482;7.716;2023-04-27T00:15:34;98932.88;;;5.02;100.00
11542;BME280;5827;49.482;7.716;2023-04-27T00:17:35;98928.41;;;5.09;100.00
11542;BME280;5827;49.482;7.716;2023-04-27T00:19:37;98932.47;;;5.12;100.00
11542;BME280;5827;49.482;7.716;2023-04-27T00:21:41;98929.63;;;5.00;100.00
11542;BME280;5827;49.482;7.716;2023-04-27T00:23:42;98931.84;;;5.03;99.93
11542;BME280;5827;49.482;7.716;2023-04-27T00:25:45;98931.66;;;5.12;99.71
11542;BME280;5827;49.482;7.716;2023-04-27T00:27:46;98940.22;;;5.07;100.00
11542;BME280;5827;49.482;7.716;2023-04-27T00:29:48;98926.94;;;5.07;100.00
11542;BME280;5827;49.482;7.716;2023-04-27T00:31:49;98941.88;;;5.01;99.68
11542;BME280;5827;49.482;7.716;2023-04-27T00:33:51;98949.00;;;4.94;99.52
11542;BME280;5827;49.482;7.716;2023-04-27T00:35:52;98949.41;;;4.91;99.90
11542;BME280;5827;49.482;7.716;2023-04-27T00:37:54;98950.22;;;4.98;99.88
11542;BME280;5827;49.482;7.716;2023-04-27T00:39:55;98943.69;;;4.94;99.71
11542;BME280;5827;49.482;7.716;2023-04-27T00:41:59;98943.28;;;4.91;98.98
11542;BME280;5827;49.482;7.716;2023-04-27T00:44:00;98936.75;;;4.93;100.00
11542;BME280;5827;49.482;7.716;2023-04-27T00:46:02;98943.91;;;4.93;100.00
11542;BME280;5827;49.482;7.716;2023-04-27T00:48:04;98937.56;;;4.87;100.00
11542;BME280;5827;49.482;7.716;2023-04-27T00:50:06;98938.34;;;4.81;98.54
11542;BME280;5827;49.482;7.716;2023-04-27T00:52:09;98929.56;;;4.67;99.10
11542;BME280;5827;49.482;7.716;2023-04-27T00:54:11;98923.25;;;4.68;99.38
11542;BME280;5827;49.482;7.716;2023-04-27T00:56:13;98923.44;;;4.67;99.91
11542;BME280;5827;49.482;7.716;2023-04-27T00:58:16;98922.41;;;4.61;100.00
11542;BME280;5827;49.482;7.716;2023-04-27T01:00:18;98920.97;;;4.58;100.00
11542;BME280;5827;49.482;7.716;2023-04-27T01:02:20;98918.50;;;4.57;100.00
11542;BME280;5827;49.482;7.716;2023-04-27T01:04:21;98921.97;;;4.57;100.00
11542;BME280;5827;49.482;7.716;2023-04-27T01:06:23;98929.13;;;4.57;100.00
11542;BME280;5827;49.482;7.716;2023-04-27T01:08:24;98933.41;;;4.51;100.00
11542;BME280;5827;49.482;7.716;2023-04-27T01:10:26;98935.63;;;4.48;100.00
11542;BME280;5827;49.482;7.716;2023-04-27T01:12:27;98932.16;;;4.47;100.00
11542;BME280;5827;49.482;7.716;2023-04-27T01:14:30;98932.56;;;4.44;100.00
11542;BME280;5827;49.482;7.716;2023-04-27T01:16:32;98935.03;;;4.46;100.00
11542;BME280;5827;49.482;7.716;2023-04-27T01:18:34;98939.69;;;4.44;100.00
11542;BME280;5827;49.482;7.716;2023-04-27T01:20:36;98940.94;;;4.48;100.00
11542;BME280;5827;49.482;7.716;2023-04-27T01:22:38;98946.28;;;4.54;100.00
11542;BME280;5827;49.482;7.716;2023-04-27T01:24:42;98939.13;;;4.55;100.00
11542;BME280;5827;49.482;7.716;2023-04-27T01:26:43;98935.28;;;4.64;100.00
11542;BME280;5827;49.482;7.716;2023-04-27T01:28:45;98933.44;;;4.71;100.00
11542;BME280;5827;49.482;7.716;2023-04-27T01:30:46;98936.47;;;4.55;100.00
11542;BME280;5827;49.482;7.716;2023-04-27T01:32:48;98938.53;;;4.66;100.00
11542;BME280;5827;49.482;7.716;2023-04-27T01:34:50;98937.13;;;4.70;100.00
11542;BME280;5827;49.482;7.716;2023-04-27T01:36:51;98932.84;;;4.76;100.00
11542;BME280;5827;49.482;7.716;2023-04-27T01:38:53;98938.97;;;4.76;100.00
11542;BME280;5827;49.482;7.716;2023-04-27T01:40:55;98936.72;;;4.80;100.00
11542;BME280;5827;49.482;7.716;2023-04-27T01:43:01;98932.66;;;4.77;100.00
11542;BME280;5827;49.482;7.716;2023-04-27T01:45:03;98941.00;;;4.68;100.00
11542;BME280;5827;49.482;7.716;2023-04-27T01:47:04;98938.97;;;4.70;100.00
11542;BME280;5827;49.482;7.716;2023-04-27T01:49:06;98939.97;;;4.69;100.00
11542;BME280;5827;49.482;7.716;2023-04-27T01:51:07;98936.53;;;4.81;100.00
11542;BME280;5827;49.482;7.716;2023-04-27T01:53:09;98938.59;;;4.93;100.00
11542;BME280;5827;49.482;7.716;2023-04-27T01:55:10;98938.00;;;4.91;100.00
11542;BME280;5827;49.482;7.716;2023-04-27T01:57:13;98938.75;;;4.71;100.00
11542;BME280;5827;49.482;7.716;2023-04-27T01:59:15;98938.34;;;4.81;100.00
11542;BME280;5827;49.482;7.716;2023-04-27T02:01:16;98950.00;;;4.73;100.00
11542;BME280;5827;49.482;7.716;2023-04-27T02:03:18;98942.66;;;4.82;100.00
11542;BME280;5827;49.482;7.716;2023-04-27T02:05:19;98941.44;;;4.91;100.00
11542;BME280;5827;49.482;7.716;2023-04-27T02:07:21;98947.16;;;4.95;100.00
11542;BME280;5827;49.482;7.716;2023-04-27T02:09:23;98943.91;;;4.93;100.00
11542;BME280;5827;49.482;7.716;2023-04-27T02:11:24;98946.34;;;4.94;100.00
11542;BME280;5827;49.482;7.716;2023-04-27T02:13:28;98943.50;;;4.96;100.00
11542;BME280;5827;49.482;7.716;2023-04-27T02:15:29;98950.63;;;4.89;100.00
11542;BME280;5827;49.482;7.716;2023-04-27T02:17:32;98950.41;;;4.83;100.00
11542;BME280;5827;49.482;7.716;2023-04-27T02:19:34;98952.06;;;4.78;100.00
11542;BME280;5827;49.482;7.716;2023-04-27T02:21:35;98950.00;;;4.80;100.00
11542;BME280;5827;49.482;7.716;2023-04-27T02:23:37;98950.22;;;4.78;100.00
11542;BME280;5827;49.482;7.716;2023-04-27T02:25:38;98955.13;;;4.81;100.00
11542;BME280;5827;49.482;7.716;2023-04-27T02:27:43;98949.81;;;4.81;100.00
11542;BME280;5827;49.482;7.716;2023-04-27T02:29:47;98954.91;;;4.83;100.00
11542;BME280;5827;49.482;7.716;2023-04-27T02:31:48;98955.94;;;4.82;99.98
11542;BME280;5827;49.482;7.716;2023-04-27T02:33:50;98958.78;;;4.80;100.00
11542;BME280;5827;49.482;7.716;2023-04-27T02:35:51;98959.41;;;4.89;100.00
11542;BME280;5827;49.482;7.716;2023-04-27T02:37:53;98966.34;;;4.90;100.00
11542;BME280;5827;49.482;7.716;2023-04-27T02:39:54;98969.81;;;4.84;100.00
11542;BME280;5827;49.482;7.716;2023-04-27T02:41:55;98966.13;;;4.85;100.00
11542;BME280;5827;49.482;7.716;2023-04-27T02:43:57;98962.88;;;4.83;100.00
11542;BME280;5827;49.482;7.716;2023-04-27T02:46:02;98965.75;;;4.81;100.00
11542;BME280;5827;49.482;7.716;2023-04-27T02:48:04;98965.75;;;4.88;100.00
11542;BME280;5827;49.482;7.716;2023-04-27T02:50:06;98960.66;;;4.87;100.00
11542;BME280;5827;49.482;7.716;2023-04-27T02:52:08;98969.63;;;4.92;100.00
11542;BME280;5827;49.482;7.716;2023-04-27T02:54:09;98971.91;;;4.95;100.00
11542;BME280;5827;49.482;7.716;2023-04-27T02:56:11;98970.06;;;4.96;100.00
11542;BME280;5827;49.482;7.716;2023-04-27T02:58:13;98970.22;;;4.88;100.00
11542;BME280;5827;49.482;7.716;2023-04-27T03:00:15;98962.09;;;4.96;100.00
11542;BME280;5827;49.482;7.716;2023-04-27T03:02:17;98956.16;;;5.07;100.00
11542;BME280;5827;49.482;7.716;2023-04-27T03:04:19;98964.94;;;4.94;100.00
11542;BME280;5827;49.482;7.716;2023-04-27T03:06:21;98954.50;;;4.93;100.00
11542;BME280;5827;49.482;7.716;2023-04-27T03:08:22;98963.94;;;5.02;100.00
11542;BME280;5827;49.482;7.716;2023-04-27T03:10:24;98961.91;;;5.10;100.00
11542;BME280;5827;49.482;7.716;2023-04-27T03:12:27;98954.34;;;5.14;100.00
11542;BME280;5827;49.482;7.716;2023-04-27T03:14:28;98953.06;;;4.90;100.00
11542;BME280;5827;49.482;7.716;2023-04-27T03:16:30;98952.91;;;5.05;100.00
11542;BME280;5827;49.482;7.716;2023-04-27T03:18:33;98948.00;;;5.15;100.00
11542;BME280;5827;49.482;7.716;2023-04-27T03:20:34;98946.16;;;5.16;100.00
11542;BME280;5827;49.482;7.716;2023-04-27T03:22:36;98944.53;;;5.15;100.00
11542;BME280;5827;49.482;7.716;2023-04-27T03:24:37;98949.63;;;5.03;100.00
11542;BME280;5827;49.482;7.716;2023-04-27T03:26:39;98936.34;;;5.16;100.00
11542;BME280;5827;49.482;7.716;2023-04-27T03:28:40;98939.84;;;5.10;100.00
11542;BME280;5827;49.482;7.716;2023-04-27T03:30:42;98938.41;;;5.14;100.00
11542;BME280;5827;49.482;7.716;2023-04-27T03:32:43;98935.72;;;5.07;100.00
11542;BME280;5827;49.482;7.716;2023-04-27T03:34:46;98937.16;;;4.83;100.00
11542;BME280;5827;49.482;7.716;2023-04-27T03:36:47;98944.31;;;4.96;100.00
11542;BME280;5827;49.482;7.716;2023-04-27T03:38:50;98941.69;;;5.09;100.00
11542;BME280;5827;49.482;7.716;2023-04-27T03:40:52;98943.69;;;5.07;100.00
11542;BME280;5827;49.482;7.716;2023-04-27T03:42:53;98949.63;;;5.09;100.00
11542;BME280;5827;49.482;7.716;2023-04-27T03:44:55;98938.19;;;5.16;100.00
11542;BME280;5827;49.482;7.716;2023-04-27T03:46:56;98946.78;;;5.24;100.00
11542;BME280;5827;49.482;7.716;2023-04-27T03:48:58;98953.53;;;5.27;100.00
11542;BME280;5827;49.482;7.716;2023-04-27T03:51:01;98954.34;;;5.27;100.00
11542;BME280;5827;49.482;7.716;2023-04-27T03:53:02;98961.28;;;5.35;100.00
11542;BME280;5827;49.482;7.716;2023-04-27T03:55:05;98954.34;;;5.34;100.00
11542;BME280;5827;49.482;7.716;2023-04-27T03:57:07;98955.38;;;5.20;100.00
11542;BME280;5827;49.482;7.716;2023-04-27T03:59:08;98953.06;;;4.90;100.00
11542;BME280;5827;49.482;7.716;2023-04-27T04:01:10;98951.88;;;5.06;100.00
11542;BME280;5827;49.482;7.716;2023-04-27T04:03:11;98953.94;;;5.10;100.00
11542;BME280;5827;49.482;7.716;2023-04-27T04:05:13;98953.31;;;5.02;100.00
11542;BME280;5827;49.482;7.716;2023-04-27T04:07:15;98955.97;;;5.02;100.00
11542;BME280;5827;49.482;7.716;2023-04-27T04:09:17;98952.47;;;4.95;100.00
11542;BME280;5827;49.482;7.716;2023-04-27T04:11:18;98950.44;;;5.03;100.00
11542;BME280;5827;49.482;7.716;2023-04-27T04:13:20;98952.50;;;5.15;100.00
11542;BME280;5827;49.482;7.716;2023-04-27T04:15:22;98960.28;;;5.23;100.00
11542;BME280;5827;49.482;7.716;2023-04-27T04:17:23;98953.94;;;5.10;100.00
11542;BME280;5827;49.482;7.716;2023-04-27T04:19:25;98954.13;;;5.16;100.00
11542;BME280;5827;49.482;7.716;2023-04-27T04:21:26;98957.22;;;5.19;100.00
11542;BME280;5827;49.482;7.716;2023-04-27T04:23:29;98961.28;;;5.22;100.00
11542;BME280;5827;49.482;7.716;2023-04-27T04:25:31;98960.88;;;5.25;100.00
11542;BME280;5827;49.482;7.716;2023-04-27T04:27:33;98953.94;;;5.30;100.00
11542;BME280;5827;49.482;7.716;2023-04-27T04:29:35;98958.00;;;5.40;100.00
11542;BME280;5827;49.482;7.716;2023-04-27T04:31:38;98958.81;;;5.40;100.00
11542;BME280;5827;49.482;7.716;2023-04-27T04:33:39;98961.50;;;5.47;100.00
11542;BME280;5827;49.482;7.716;2023-04-27T04:35:41;98951.09;;;5.45;100.00
11542;BME280;5827;49.482;7.716;2023-04-27T04:37:42;98954.53;;;5.39;100.00
11542;BME280;5827;49.482;7.716;2023-04-27T04:39:45;98952.09;;;5.31;100.00
11542;BME280;5827;49.482;7.716;2023-04-27T04:41:46;98951.69;;;5.27;100.00
11542;BME280;5827;49.482;7.716;2023-04-27T04:43:49;98961.69;;;5.39;100.00
11542;BME280;5827;49.482;7.716;2023-04-27T04:45:50;98953.72;;;5.52;100.00
11542;BME280;5827;49.482;7.716;2023-04-27T04:47:52;98954.53;;;5.52;100.00
11542;BME280;5827;49.482;7.716;2023-04-27T04:49:54;98956.34;;;5.58;100.00
11542;BME280;5827;49.482;7.716;2023-04-27T04:51:56;98954.09;;;5.62;100.00
11542;BME280;5827;49.482;7.716;2023-04-27T04:53:57;98961.28;;;5.68;100.00
11542;BME280;5827;49.482;7.716;2023-04-27T04:56:08;98966.78;;;5.73;100.00
11542;BME280;5827;49.482;7.716;2023-04-27T04:58:10;98972.91;;;5.67;100.00
11542;BME280;5827;49.482;7.716;2023-04-27T05:00:12;98979.25;;;5.79;100.00
11542;BME280;5827;49.482;7.716;2023-04-27T05:02:14;98972.28;;;5.85;100.00
11542;BME280;5827;49.482;7.716;2023-04-27T05:04:16;98975.97;;;5.84;100.00
11542;BME280;5827;49.482;7.716;2023-04-27T05:06:18;98978.81;;;5.89;100.00
11542;BME280;5827;49.482;7.716;2023-04-27T05:08:20;98979.66;;;5.96;100.00
11542;BME280;5827;49.482;7.716;2023-04-27T05:10:21;98983.31;;;6.02;100.00
11542;BME280;5827;49.482;7.716;2023-04-27T05:12:24;98976.97;;;6.09;100.00
11542;BME280;5827;49.482;7.716;2023-04-27T05:14:25;98978.16;;;6.14;99.89
11542;BME280;5827;49.482;7.716;2023-04-27T05:16:27;98985.53;;;6.11;99.65
11542;BME280;5827;49.482;7.716;2023-04-27T05:18:28;98989.44;;;6.02;99.67
11542;BME280;5827;49.482;7.716;2023-04-27T05:20:33;98990.06;;;6.04;100.00
11542;BME280;5827;49.482;7.716;2023-04-27T05:22:34;98995.78;;;6.08;100.00
11542;BME280;5827;49.482;7.716;2023-04-27T05:24:36;98997.00;;;6.12;100.00
11542;BME280;5827;49.482;7.716;2023-04-27T05:26:38;98994.16;;;6.07;100.00
11542;BME280;5827;49.482;7.716;2023-04-27T05:28:41;99002.94;;;6.07;100.00
11542;BME280;5827;49.482;7.716;2023-04-27T05:30:42;99002.34;;;6.05;100.00
11542;BME280;5827;49.482;7.716;2023-04-27T05:32:43;99008.06;;;6.02;100.00
11542;BME280;5827;49.482;7.716;2023-04-27T05:34:45;99007.47;;;5.94;99.65
11542;BME280;5827;49.482;7.716;2023-04-27T05:36:46;99012.56;;;5.89;100.00
11542;BME280;5827;49.482;7.716;2023-04-27T05:38:48;99011.72;;;6.21;100.00
11542;BME280;5827;49.482;7.716;2023-04-27T05:40:53;99011.00;;;6.46;100.00
11542;BME280;5827;49.482;7.716;2023-04-27T05:42:54;99016.41;;;6.77;98.61
11542;BME280;5827;49.482;7.716;2023-04-27T05:44:57;99024.03;;;6.74;96.71
11542;BME280;5827;49.482;7.716;2023-04-27T05:46:59;99026.25;;;7.15;95.79
11542;BME280;5827;49.482;7.716;2023-04-27T05:49:00;99036.03;;;7.21;95.27
11542;BME280;5827;49.482;7.716;2023-04-27T05:51:02;99037.19;;;7.32;93.30
11542;BME280;5827;49.482;7.716;2023-04-27T05:53:04;99037.34;;;7.37;93.44
11542;BME280;5827;49.482;7.716;2023-04-27T05:55:06;99030.97;;;7.13;95.05
11542;BME280;5827;49.482;7.716;2023-04-27T05:57:08;99028.00;;;7.28;93.94
11542;BME280;5827;49.482;7.716;2023-04-27T05:59:09;99034.34;;;7.27;92.98
11542;BME280;5827;49.482;7.716;2023-04-27T06:01:12;99031.88;;;7.32;92.92
11542;BME280;5827;49.482;7.716;2023-04-27T06:03:14;99037.97;;;7.39;92.44
11542;BME280;5827;49.482;7.716;2023-04-27T06:05:16;99042.66;;;7.44;91.76
11542;BME280;5827;49.482;7.716;2023-04-27T06:07:18;99044.22;;;7.51;92.40
11542;BME280;5827;49.482;7.716;2023-04-27T06:09:19;99042.56;;;7.57;91.46
11542;BME280;5827;49.482;7.716;2023-04-27T06:11:21;99049.56;;;7.51;91.87
11542;BME280;5827;49.482;7.716;2023-04-27T06:13:22;99040.97;;;7.49;90.20
11542;BME280;5827;49.482;7.716;2023-04-27T06:15:24;99056.44;;;7.66;90.09
11542;BME280;5827;49.482;7.716;2023-04-27T06:17:27;99053.94;;;7.71;88.35
11542;BME280;5827;49.482;7.716;2023-04-27T06:19:28;99051.75;;;7.86;88.09
11542;BME280;5827;49.482;7.716;2023-04-27T06:21:31;99049.25;;;7.91;86.52
11542;BME280;5827;49.482;7.716;2023-04-27T06:23:32;99048.50;;;7.84;87.24
11542;BME280;5827;49.482;7.716;2023-04-27T06:25:34;99050.66;;;7.94;87.37
11542;BME280;5827;49.482;7.716;2023-04-27T06:27:37;99053.56;;;8.10;86.97
11542;BME280;5827;49.482;7.716;2023-04-27T06:29:39;99053.09;;;8.20;86.12
11542;BME280;5827;49.482;7.716;2023-04-27T06:31:41;99068.84;;;8.47;85.79
11542;BME280;5827;49.482;7.716;2023-04-27T06:33:43;99062.97;;;8.56;85.83
11542;BME280;5827;49.482;7.716;2023-04-27T06:35:45;99053.97;;;8.57;86.13
11542;BME280;5827;49.482;7.716;2023-04-27T06:37:46;99067.56;;;8.86;85.02
11542;BME280;5827;49.482;7.716;2023-04-27T06:39:48;99073.53;;;9.18;84.17
11542;BME280;5827;49.482;7.716;2023-04-27T06:41:49;99077.16;;;9.54;81.72
11542;BME280;5827;49.482;7.716;2023-04-27T06:43:51;99087.66;;;9.67;80.51
11542;BME280;5827;49.482;7.716;2023-04-27T06:45:52;99090.44;;;9.30;80.01
11542;BME280;5827;49.482;7.716;2023-04-27T06:47:54;99084.38;;;9.65;81.34
11542;BME280;5827;49.482;7.716;2023-04-27T06:49:57;99086.59;;;9.80;80.13
11542;BME280;5827;49.482;7.716;2023-04-27T06:52:00;99088.16;;;10.11;79.76
11542;BME280;5827;49.482;7.716;2023-04-27T06:54:02;99086.22;;;9.64;83.01
11542;BME280;5827;49.482;7.716;2023-04-27T06:56:04;99077.03;;;9.49;81.52
11542;BME280;5827;49.482;7.716;2023-04-27T06:58:06;99078.59;;;9.38;82.52
11542;BME280;5827;49.482;7.716;2023-04-27T07:00:08;99083.13;;;9.79;79.84
11542;BME280;5827;49.482;7.716;2023-04-27T07:02:12;99061.97;;;9.06;86.60
11542;BME280;5827;49.482;7.716;2023-04-27T07:04:13;99072.53;;;9.84;84.02
11542;BME280;5827;49.482;7.716;2023-04-27T07:06:16;99072.94;;;10.47;81.53
11542;BME280;5827;49.482;7.716;2023-04-27T07:08:18;99067.44;;;9.41;81.47
11542;BME280;5827;49.482;7.716;2023-04-27T07:10:19;99061.47;;;9.27;81.08
11542;BME280;5827;49.482;7.716;2023-04-27T07:12:21;99070.31;;;9.70;78.88
11542;BME280;5827;49.482;7.716;2023-04-27T07:14:22;99078.84;;;9.36;75.72
11542;BME280;5827;49.482;7.716;2023-04-27T07:16:24;99084.78;;;9.92;73.35
11542;BME280;5827;49.482;7.716;2023-04-27T07:18:26;99083.69;;;10.75;71.09
11542;BME280;5827;49.482;7.716;2023-04-27T07:20:28;99095.63;;;11.08;66.68
11542;BME280;5827;49.482;7.716;2023-04-27T07:22:31;99097.59;;;11.12;68.61
11542;BME280;5827;49.482;7.716;2023-04-27T07:24:32;99095.41;;;10.34;69.84
11542;BME280;5827;49.482;7.716;2023-04-27T07:26:34;99097.38;;;11.14;69.95
11542;BME280;5827;49.482;7.716;2023-04-27T07:28:35;99094.22;;;10.65;71.71
11542;BME280;5827;49.482;7.716;2023-04-27T07:30:37;99090.69;;;11.16;70.51
11542;BME280;5827;49.482;7.716;2023-04-27T07:32:40;99099.03;;;11.60;69.01
11542;BME280;5827;49.482;7.716;2023-04-27T07:34:41;99093.66;;;11.60;68.56
11542;BME280;5827;49.482;7.716;2023-04-27T07:36:43;99096.03;;;11.45;66.56
11542;BME280;5827;49.482;7.716;2023-04-27T07:38:46;99095.34;;;11.66;66.19
11542;BME280;5827;49.482;7.716;2023-04-27T07:40:48;99093.38;;;11.90;66.33
11542;BME280;5827;49.482;7.716;2023-04-27T07:42:50;99096.47;;;11.99;63.85
11542;BME280;5827;49.482;7.716;2023-04-27T07:44:51;99085.03;;;11.75;66.62
11542;BME280;5827;49.482;7.716;2023-04-27T07:46:53;99071.16;;;11.95;68.77
11542;BME280;5827;49.482;7.716;2023-04-27T07:48:57;99084.09;;;12.15;66.59
11542;BME280;5827;49.482;7.716;2023-04-27T07:50:59;99087.97;;;12.41;65.32
11542;BME280;5827;49.482;7.716;2023-04-27T07:53:01;99075.41;;;11.17;68.66
11542;BME280;5827;49.482;7.716;2023-04-27T07:55:04;99075.56;;;11.84;70.07
11542;BME280;5827;49.482;7.716;2023-04-27T07:57:07;99086.03;;;11.40;67.59
11542;BME280;5827;49.482;7.716;2023-04-27T07:59:10;99080.06;;;11.67;68.20
11542;BME280;5827;49.482;7.716;2023-04-27T08:01:13;99081.31;;;12.27;68.84
11542;BME280;5827;49.482;7.716;2023-04-27T08:03:15;99070.81;;;12.08;69.70
11542;BME280;5827;49.482;7.716;2023-04-27T08:05:17;99073.75;;;12.24;69.71
11542;BME280;5827;49.482;7.716;2023-04-27T08:07:18;99077.59;;;12.50;68.93
11542;BME280;5827;49.482;7.716;2023-04-27T08:09:20;99079.19;;;12.89;66.38
11542;BME280;5827;49.482;7.716;2023-04-27T08:11:23;99082.38;;;12.86;65.12
11542;BME280;5827;49.482;7.716;2023-04-27T08:13:25;99081.56;;;12.64;65.23
11542;BME280;5827;49.482;7.716;2023-04-27T08:15:26;99089.56;;;12.81;62.75
11542;BME280;5827;49.482;7.716;2023-04-27T08:17:28;99093.41;;;12.85;62.61
11542;BME280;5827;49.482;7.716;2023-04-27T08:19:30;99085.75;;;12.98;63.73
11542;BME280;5827;49.482;7.716;2023-04-27T08:21:31;99085.84;;;13.26;62.93
11542;BME280;5827;49.482;7.716;2023-04-27T08:23:33;99092.31;;;13.08;60.84
11542;BME280;5827;49.482;7.716;2023-04-27T08:25:36;99092.75;;;13.43;62.38
11542;BME280;5827;49.482;7.716;2023-04-27T08:27:39;99090.06;;;13.21;62.97
11542;BME280;5827;49.482;7.716;2023-04-27T08:29:44;99081.41;;;13.41;63.31
11542;BME280;5827;49.482;7.716;2023-04-27T08:31:46;99093.59;;;13.76;61.60
11542;BME280;5827;49.482;7.716;2023-04-27T08:33:47;99094.81;;;13.95;61.34
11542;BME280;5827;49.482;7.716;2023-04-27T08:35:49;99091.53;;;13.29;60.84
11542;BME280;5827;49.482;7.716;2023-04-27T08:37:50;99091.69;;;13.44;60.52
11542;BME280;5827;49.482;7.716;2023-04-27T08:39:53;99106.81;;;13.51;57.37
11542;BME280;5827;49.482;7.716;2023-04-27T08:41:54;99100.47;;;13.94;58.36
11542;BME280;5827;49.482;7.716;2023-04-27T08:43:58;99111.94;;;14.11;57.35
11542;BME280;5827;49.482;7.716;2023-04-27T08:46:00;99101.56;;;13.93;57.42
11542;BME280;5827;49.482;7.716;2023-04-27T08:48:01;99101.25;;;14.27;56.81
11542;BME280;5827;49.482;7.716;2023-04-27T08:50:03;99101.66;;;14.45;56.39
11542;BME280;5827;49.482;7.716;2023-04-27T08:52:09;99100.66;;;14.57;56.83
11542;BME280;5827;49.482;7.716;2023-04-27T08:54:11;99099.59;;;14.53;56.95
11542;BME280;5827;49.482;7.716;2023-04-27T08:56:12;99099.63;;;13.88;57.16
11542;BME280;5827;49.482;7.716;2023-04-27T08:58:14;99096.41;;;14.29;58.06
11542;BME280;5827;49.482;7.716;2023-04-27T09:00:18;99092.03;;;13.26;58.41
11542;BME280;5827;49.482;7.716;2023-04-27T09:02:20;99103.34;;;13.82;57.30
11542;BME280;5827;49.482;7.716;2023-04-27T09:04:22;99088.47;;;14.07;56.36
11542;BME280;5827;49.482;7.716;2023-04-27T09:06:30;99094.97;;;14.48;55.67
11542;BME280;5827;49.482;7.716;2023-04-27T09:08:42;99092.69;;;14.77;55.03
11542;BME280;5827;49.482;7.716;2023-04-27T09:10:46;99095.03;;;14.58;55.13
11542;BME280;5827;49.482;7.716;2023-04-27T09:12:54;99098.28;;;14.65;53.97
11542;BME280;5827;49.482;7.716;2023-04-27T09:14:56;99094.69;;;15.02;54.01
11542;BME280;5827;49.482;7.716;2023-04-27T09:16:59;99100.69;;;15.30;52.62
11542;BME280;5827;49.482;7.716;2023-04-27T09:19:01;99094.25;;;15.36;52.16
11542;BME280;5827;49.482;7.716;2023-04-27T09:21:03;99092.56;;;15.09;51.99
11542;BME280;5827;49.482;7.716;2023-04-27T09:23:04;99092.16;;;15.58;52.58
11542;BME280;5827;49.482;7.716;2023-04-27T09:25:06;99090.28;;;15.69;52.73
11542;BME280;5827;49.482;7.716;2023-04-27T09:27:08;99088.31;;;15.44;53.20
11542;BME280;5827;49.482;7.716;2023-04-27T09:29:09;99097.88;;;15.82;51.30
11542;BME280;5827;49.482;7.716;2023-04-27T09:31:11;99084.34;;;16.18;52.24
11542;BME280;5827;49.482;7.716;2023-04-27T09:33:14;99088.13;;;16.22;51.57
11542;BME280;5827;49.482;7.716;2023-04-27T09:35:21;99101.13;;;15.99;49.49
11542;BME280;5827;49.482;7.716;2023-04-27T09:37:22;99097.84;;;16.02;49.23
11542;BME280;5827;49.482;7.716;2023-04-27T09:39:26;99101.38;;;16.23;48.78
11542;BME280;5827;49.482;7.716;2023-04-27T09:41:28;99111.88;;;16.35;48.77
11542;BME280;5827;49.482;7.716;2023-04-27T09:43:29;99112.38;;;16.83;46.82
11542;BME280;5827;49.482;7.716;2023-04-27T09:45:32;99109.53;;;17.09;46.09
11542;BME280;5827;49.482;7.716;2023-04-27T09:47:34;99115.13;;;16.42;44.47
11542;BME280;5827;49.482;7.716;2023-04-27T09:49:37;99098.31;;;16.66;48.24
11542;BME280;5827;49.482;7.716;2023-04-27T09:51:39;99099.34;;;16.85;46.79
11542;BME280;5827;49.482;7.716;2023-04-27T09:53:45;99102.91;;;16.75;46.10
11542;BME280;5827;49.482;7.716;2023-04-27T09:55:58;99101.56;;;16.58;45.28
11542;BME280;5827;49.482;7.716;2023-04-27T09:58:22;99107.41;;;17.06;44.29
11542;BME280;5827;49.482;7.716;2023-04-27T10:00:44;99103.97;;;17.44;45.69
11542;BME280;5827;49.482;7.716;2023-04-27T10:02:58;99108.28;;;16.96;44.69
11542;BME280;5827;49.482;7.716;2023-04-27T10:05:21;99109.78;;;17.17;43.37
11542;BME280;5827;49.482;7.716;2023-04-27T10:07:28;99103.50;;;16.47;42.89
11542;BME280;5827;49.482;7.716;2023-04-27T10:09:34;99107.31;;;17.26;42.67
11542;BME280;5827;49.482;7.716;2023-04-27T10:11:37;99096.97;;;17.38;45.37
11542;BME280;5827;49.482;7.716;2023-04-27T10:13:49;99108.38;;;17.30;43.04
11542;BME280;5827;49.482;7.716;2023-04-27T10:15:51;99111.50;;;16.98;41.82
11542;BME280;5827;49.482;7.716;2023-04-27T10:17:53;99107.81;;;17.83;43.49
11542;BME280;5827;49.482;7.716;2023-04-27T10:19:59;99124.50;;;17.95;40.87
11542;BME280;5827;49.482;7.716;2023-04-27T10:22:02;99107.91;;;18.07;43.50
11542;BME280;5827;49.482;7.716;2023-04-27T10:24:07;99110.69;;;17.96;42.37
11542;BME280;5827;49.482;7.716;2023-04-27T10:26:09;99106.84;;;17.14;42.38
11542;BME280;5827;49.482;7.716;2023-04-27T10:28:14;99104.31;;;16.47;42.64
11542;BME280;5827;49.482;7.716;2023-04-27T10:30:17;99098.88;;;16.52;44.18
11542;BME280;5827;49.482;7.716;2023-04-27T10:32:20;99099.03;;;17.02;44.03
11542;BME280;5827;49.482;7.716;2023-04-27T10:34:26;99095.22;;;17.03;44.07
11542;BME280;5827;49.482;7.716;2023-04-27T10:36:33;99108.22;;;17.06;43.42
11542;BME280;5827;49.482;7.716;2023-04-27T10:38:39;99094.09;;;17.19;43.13
11542;BME280;5827;49.482;7.716;2023-04-27T10:40:43;99094.97;;;17.05;42.52
11542;BME280;5827;49.482;7.716;2023-04-27T10:42:46;99093.44;;;16.78;43.03
11542;BME280;5827;49.482;7.716;2023-04-27T10:44:53;99081.94;;;17.07;44.25
11542;BME280;5827;49.482;7.716;2023-04-27T10:46:58;99082.97;;;17.21;43.21
11542;BME280;5827;49.482;7.716;2023-04-27T10:49:00;99080.84;;;17.57;43.49
11542;BME280;5827;49.482;7.716;2023-04-27T10:51:05;99093.88;;;17.55;41.50
11542;BME280;5827;49.482;7.716;2023-04-27T10:53:07;99082.00;;;17.51;42.14
11542;BME280;5827;49.482;7.716;2023-04-27T10:55:14;99080.69;;;16.84;42.53
11542;BME280;5827;49.482;7.716;2023-04-27T10:57:15;99072.59;;;16.79;44.12
11542;BME280;5827;49.482;7.716;2023-04-27T10:59:17;99071.47;;;16.85;43.11